createdAt,value
2022-11-30T00:09:42.664Z,45.70
2022-11-30T00:19:44.589Z,45.69
2022-11-30T00:29:46.062Z,45.68
2022-11-30T00:39:47.471Z,45.68
2022-11-30T00:49:48.918Z,45.70
2022-11-30T00:59:50.452Z,45.73
2022-11-30T01:09:51.912Z,45.79
2022-11-30T01:19:53.295Z,45.81
2022-11-30T01:29:54.857Z,45.75
2022-11-30T01:39:56.311Z,45.86
2022-11-30T01:50:10.321Z,45.76
2022-11-30T02:00:13.195Z,45.87
2022-11-30T02:10:16.949Z,45.90
2022-11-30T02:20:35.225Z,45.93
2022-11-30T02:30:37.644Z,46.03
2022-11-30T02:40:39.198Z,46.01
2022-11-30T02:50:51.916Z,46.06
2022-11-30T03:00:53.350Z,46.16
2022-11-30T03:10:54.734Z,46.03
2022-11-30T03:20:56.269Z,46.06
2022-11-30T03:30:57.737Z,46.04
2022-11-30T03:41:00.948Z,45.99
2022-11-30T03:51:02.931Z,46.04
2022-11-30T04:01:09.481Z,46.08
2022-11-30T04:11:11.547Z,46.11
2022-11-30T04:21:12.928Z,46.04
2022-11-30T04:31:14.383Z,45.95
2022-11-30T04:41:15.768Z,45.98
2022-11-30T04:51:17.135Z,46.05
2022-11-30T05:01:18.522Z,45.99
2022-11-30T05:11:20.060Z,45.97
2022-11-30T05:21:21.438Z,45.64
2022-11-30T05:31:22.870Z,45.26
2022-11-30T05:41:24.308Z,45.06
2022-11-30T05:51:26.164Z,44.85
2022-11-30T06:01:28.222Z,44.54
2022-11-30T06:11:29.619Z,44.36
2022-11-30T06:21:31.004Z,44.12
2022-11-30T06:31:32.521Z,44.10
2022-11-30T06:41:34.079Z,43.94
2022-11-30T06:51:37.301Z,43.97
2022-11-30T07:01:38.748Z,43.82
2022-11-30T07:11:40.234Z,43.69
2022-11-30T07:21:41.607Z,43.74
2022-11-30T07:31:43.138Z,43.73
2022-11-30T07:41:44.802Z,43.70
2022-11-30T07:51:46.167Z,43.57
2022-11-30T08:01:47.787Z,43.45
2022-11-30T08:11:49.896Z,43.49
2022-11-30T08:21:51.311Z,43.36
2022-11-30T08:31:52.747Z,43.35
2022-11-30T08:41:54.266Z,43.30
2022-11-30T09:02:17.933Z,43.29
2022-11-30T09:12:19.798Z,43.20
2022-11-30T09:22:21.327Z,43.17
2022-11-30T09:32:22.802Z,43.00
2022-11-30T09:42:51.718Z,43.17
2022-11-30T09:52:58.389Z,43.06
2022-11-30T10:03:02.748Z,43.08
2022-11-30T10:13:11.862Z,42.92
2022-11-30T10:23:25.871Z,42.84
2022-11-30T10:33:35.320Z,42.90
2022-11-30T10:43:56.109Z,42.88
2022-11-30T10:53:57.852Z,42.95
2022-11-30T11:04:18.738Z,42.87
2022-11-30T11:14:22.204Z,42.92
2022-11-30T11:24:26.349Z,42.89
2022-11-30T11:34:32.188Z,42.79
2022-11-30T11:44:33.789Z,42.87
2022-11-30T11:54:49.741Z,42.83
2022-11-30T12:04:52.917Z,42.79
2022-11-30T12:14:55.413Z,42.79
2022-11-30T12:25:19.342Z,42.83
2022-11-30T12:35:29.837Z,42.70
2022-11-30T12:45:40.354Z,42.66
2022-11-30T12:56:03.299Z,42.68
2022-11-30T13:06:14.950Z,42.86
2022-11-30T13:16:16.393Z,42.69
2022-11-30T13:26:51.839Z,42.80
2022-11-30T13:37:01.563Z,42.92
2022-11-30T13:47:15.792Z,43.07
2022-11-30T13:57:29.331Z,43.18
2022-11-30T14:07:35.548Z,43.30
2022-11-30T14:17:37.477Z,43.46
2022-11-30T14:27:38.877Z,43.61
2022-11-30T14:37:45.407Z,43.57
2022-11-30T14:47:50.639Z,43.73
2022-11-30T14:58:15.289Z,43.72
2022-11-30T15:08:16.704Z,43.92
2022-11-30T15:18:19.029Z,43.96
2022-11-30T15:28:31.146Z,44.05
2022-11-30T15:38:32.558Z,44.05
2022-11-30T15:48:37.758Z,44.29
2022-11-30T15:58:45.774Z,44.31
2022-11-30T16:08:47.721Z,44.35
2022-11-30T16:18:49.176Z,44.57
2022-11-30T16:28:50.781Z,44.51
2022-11-30T16:38:52.633Z,44.74
2022-11-30T16:48:54.131Z,45.09
2022-11-30T16:58:55.610Z,45.10
2022-11-30T17:08:56.972Z,45.08
2022-11-30T17:18:58.370Z,45.08
2022-11-30T17:28:59.914Z,45.21
2022-11-30T17:39:07.563Z,45.30
2022-11-30T17:49:09.104Z,45.28
2022-11-30T17:59:10.693Z,45.49
2022-11-30T18:09:12.325Z,45.39
2022-11-30T18:19:14.864Z,45.60
2022-11-30T18:29:16.260Z,45.54
2022-11-30T18:39:17.673Z,45.66
2022-11-30T18:49:21.002Z,45.67
2022-11-30T18:59:22.398Z,45.89
2022-11-30T19:09:24.085Z,45.71
2022-11-30T19:19:25.482Z,45.74
2022-11-30T19:29:26.857Z,45.88
2022-11-30T19:39:28.314Z,45.68
2022-11-30T19:49:29.759Z,45.98
2022-11-30T19:59:32.321Z,46.00
2022-11-30T20:09:33.689Z,45.84
2022-11-30T20:19:35.224Z,45.99
2022-11-30T20:29:36.754Z,46.05
2022-11-30T20:39:42.625Z,46.09
2022-11-30T20:49:47.261Z,46.08
2022-11-30T20:59:48.691Z,46.21
2022-11-30T21:09:50.160Z,46.29
2022-11-30T21:19:51.576Z,46.25
2022-11-30T21:29:53.108Z,46.32
2022-11-30T21:39:54.526Z,46.21
2022-11-30T21:49:56.679Z,46.49
2022-11-30T21:59:58.048Z,46.42
2022-11-30T22:09:59.606Z,46.49
2022-11-30T22:20:01.065Z,46.47
2022-11-30T22:30:02.663Z,46.44
2022-11-30T22:40:04.320Z,46.59
2022-11-30T22:50:06.281Z,46.42
2022-11-30T23:00:08.327Z,46.54
2022-11-30T23:10:09.715Z,46.34
2022-11-30T23:20:11.824Z,46.39
2022-11-30T23:30:13.249Z,46.27
2022-11-30T23:40:14.727Z,46.49
2022-11-30T23:50:16.120Z,46.45
